Time;durP1;ratioP1;P1;durP2;ratioP2;P2;SDS_P1;SDS_P2;PMS_P1;PMS_P2;Temp;Humidity;BMP_temperature;BMP_pressure;BME280_temperature;BME280_humidity;BME280_pressure;Samples;Min_cycle;Max_cycle;Signal;HPM_P1;HPM_P2
2021/01/29 00:02:02;;;;;;;13.50;6.88;;;;;;;3.38;70.15;97309.84;10500080;28;20070;-56
2021/01/29 00:07:07;;;;;;;24.90;9.98;;;;;;;3.35;69.67;97299.75;10499558;28;20044;-53
2021/01/29 00:12:10;;;;;;;19.98;9.93;;;;;;;3.35;69.88;97299.75;10500922;28;20048;-52
2021/01/29 00:17:11;;;;;;;23.77;11.63;;;;;;;3.38;69.64;97283.06;10495906;28;20396;-56
2021/01/29 00:22:13;;;;;;;31.15;13.50;;;;;;;3.37;69.50;97284.06;10505107;28;20381;-52
2021/01/29 00:27:16;;;;;;;27.05;13.23;;;;;;;3.27;70.01;97278.09;10499870;28;20076;-52
2021/01/29 00:32:17;;;;;;;30.30;13.57;;;;;;;3.26;69.67;97260.88;10499599;28;20059;-55
2021/01/29 00:37:19;;;;;;;14.75;6.43;;;;;;;3.10;69.95;97257.09;10499911;28;20062;-53
2021/01/29 00:42:22;;;;;;;10.93;4.10;;;;;;;3.02;70.30;97257.03;10499377;28;20044;-54
2021/01/29 00:47:23;;;;;;;13.52;5.95;;;;;;;2.89;70.06;97248.72;10487876;28;20139;-52
2021/01/29 00:52:25;;;;;;;12.70;5.43;;;;;;;2.79;70.48;97238.38;10464916;28;20195;-51
2021/01/29 00:57:28;;;;;;;21.63;8.35;;;;;;;2.75;70.11;97229.28;10492613;28;20052;-52
2021/01/29 01:02:52;;;;;;;12.63;5.50;;;;;;;2.70;70.28;97221.09;10498201;28;20068;-54
2021/01/29 01:07:55;;;;;;;16.17;6.10;;;;;;;2.71;70.60;97223.56;10498642;28;20087;-53
2021/01/29 01:13:19;;;;;;;18.08;6.90;;;;;;;2.68;70.68;97223.84;10507345;28;20056;-51
2021/01/29 01:18:40;;;;;;;25.60;9.75;;;;;;;2.65;70.87;97218.94;10498290;28;20473;-52
2021/01/29 01:23:58;;;;;;;29.75;9.50;;;;;;;2.74;70.84;97212.06;10497109;28;20087;-51
2021/01/29 01:29:00;;;;;;;22.77;8.52;;;;;;;2.87;70.35;97211.75;10498485;28;20059;-55
2021/01/29 01:34:02;;;;;;;18.60;6.33;;;;;;;2.94;69.95;97220.59;10496395;28;20527;-53
2021/01/29 01:39:23;;;;;;;37.13;12.73;;;;;;;2.90;70.12;97208.88;10493587;28;20040;-52
2021/01/29 01:44:32;;;;;;;37.60;14.90;;;;;;;2.95;69.98;97214.41;10496578;28;20055;-52
2021/01/29 01:49:40;;;;;;;26.55;10.55;;;;;;;3.06;69.84;97216.84;10496411;28;20048;-51
2021/01/29 01:54:52;;;;;;;73.50;18.05;;;;;;;3.07;69.57;97208.09;10497579;28;20105;-52
2021/01/29 01:59:59;;;;;;;108.80;23.15;;;;;;;3.12;69.70;97205.88;10496939;28;20560;-52
2021/01/29 02:05:19;;;;;;;50.72;8.68;;;;;;;3.07;69.63;97199.47;10496934;28;20051;-52
2021/01/29 02:10:57;;;;;;;124.88;20.27;;;;;;;2.88;69.33;97203.00;10485823;28;20068;-55
2021/01/29 02:16:16;;;;;;;39.13;8.40;;;;;;;2.85;69.65;97193.72;10497880;28;20048;-52
2021/01/29 02:21:52;;;;;;;49.15;14.30;;;;;;;2.79;70.29;97207.25;10497610;28;20178;-52
2021/01/29 02:27:36;;;;;;;45.08;14.15;;;;;;;2.87;70.27;97191.00;10518795;28;20049;-55
2021/01/29 02:33:18;;;;;;;146.18;22.77;;;;;;;2.94;69.91;97186.84;10495611;28;20052;-51
2021/01/29 02:38:42;;;;;;;57.30;12.65;;;;;;;2.90;69.78;97157.78;10496673;28;20102;-55
2021/01/29 02:43:57;;;;;;;20.40;6.33;;;;;;;2.79;69.44;97170.13;10497602;28;20052;-52
2021/01/29 02:49:26;;;;;;;28.45;9.18;;;;;;;2.66;69.91;97162.69;10471125;28;20143;-52
2021/01/29 02:54:55;;;;;;;16.52;5.53;;;;;;;2.64;70.10;97160.22;10502358;28;20060;-51
2021/01/29 03:00:26;;;;;;;12.65;5.53;;;;;;;2.54;70.57;97123.94;10493351;28;20389;-51
2021/01/29 03:05:43;;;;;;;8.45;4.30;;;;;;;2.51;70.73;97149.34;10500653;28;20047;-50
2021/01/29 03:10:54;;;;;;;12.07;5.53;;;;;;;2.55;70.72;97145.50;10504269;28;20056;-52
2021/01/29 03:16:21;;;;;;;11.38;4.95;;;;;;;2.52;70.18;97130.22;10502845;28;20556;-51
2021/01/29 03:21:46;;;;;;;7.78;3.65;;;;;;;2.47;70.12;97122.09;10471631;28;20067;-53
2021/01/29 03:27:27;;;;;;;9.45;3.83;;;;;;;2.48;70.51;97134.91;10482964;28;20493;-50
2021/01/29 03:32:52;;;;;;;14.52;7.10;;;;;;;2.51;70.14;97107.88;10461924;28;20509;-51
2021/01/29 03:38:19;;;;;;;9.27;2.90;;;;;;;2.52;70.38;97099.13;10486904;28;20062;-51
2021/01/29 03:43:52;;;;;;;7.63;2.78;;;;;;;2.45;70.27;97109.25;10482836;28;20048;-54
2021/01/29 03:49:20;;;;;;;4.88;2.05;;;;;;;2.39;70.57;97094.25;10500445;28;20054;-51
2021/01/29 03:54:53;;;;;;;15.82;6.65;;;;;;;2.29;70.35;97062.38;10501852;28;20044;-55
2021/01/29 04:00:22;;;;;;;14.57;5.43;;;;;;;2.27;71.12;97074.66;10500644;28;20078;-51
2021/01/29 04:06:08;;;;;;;15.82;5.38;;;;;;;2.26;71.12;97071.25;10520699;28;20056;-53
2021/01/29 04:11:34;;;;;;;15.02;7.30;;;;;;;2.27;70.80;97091.03;10500738;28;20525;-53
2021/01/29 04:17:14;;;;;;;17.23;7.95;;;;;;;2.33;70.92;97073.28;10515708;28;20055;-50
2021/01/29 04:22:21;;;;;;;17.75;6.55;;;;;;;2.34;70.51;97086.13;10498393;28;20048;-51
2021/01/29 04:27:27;;;;;;;17.65;7.50;;;;;;;2.41;70.32;97083.75;10499489;28;20083;-51
2021/01/29 04:32:35;;;;;;;9.93;3.95;;;;;;;2.46;70.33;97074.59;10500550;28;20504;-51
2021/01/29 04:37:42;;;;;;;11.13;5.00;;;;;;;2.46;70.57;97078.94;10501067;28;20469;-54
2021/01/29 04:43:00;;;;;;;16.65;6.88;;;;;;;2.42;70.32;97062.06;10501110;28;20080;-54
2021/01/29 04:48:11;;;;;;;14.32;5.30;;;;;;;2.32;70.93;97084.63;10501295;28;20072;-50
2021/01/29 04:53:47;;;;;;;11.43;4.40;;;;;;;2.22;70.98;97066.53;10500591;28;20094;-51
2021/01/29 04:59:13;;;;;;;17.95;7.55;;;;;;;2.24;70.73;97070.59;10500804;28;20048;-55
2021/01/29 05:05:09;;;;;;;18.50;8.45;;;;;;;2.33;70.97;97047.34;10500987;28;20135;-51
2021/01/29 05:10:55;;;;;;;23.00;11.05;;;;;;;2.47;70.33;97039.91;10500299;28;20060;-52
2021/01/29 05:16:24;;;;;;;23.13;10.55;;;;;;;2.55;70.38;97046.97;10500348;28;20480;-51
2021/01/29 05:21:49;;;;;;;17.30;6.57;;;;;;;2.65;70.35;97046.91;10501510;28;20109;-51
2021/01/29 05:27:15;;;;;;;24.30;9.73;;;;;;;2.73;69.93;97034.03;10500092;28;20058;-54
2021/01/29 05:32:39;;;;;;;20.35;7.80;;;;;;;2.72;70.26;97037.59;10500029;28;20151;-53
2021/01/29 05:38:15;;;;;;;12.70;5.57;;;;;;;2.74;70.42;97025.25;10496735;28;20045;-52
2021/01/29 05:44:04;;;;;;;28.58;9.45;;;;;;;2.67;69.65;97050.16;10481876;28;20053;-51
2021/01/29 05:49:21;;;;;;;19.50;7.13;;;;;;;2.68;70.30;97036.22;10458192;28;20128;-53
2021/01/29 05:55:01;;;;;;;27.65;12.43;;;;;;;2.84;70.02;97028.63;10457757;28;20044;-52
2021/01/29 06:00:15;;;;;;;26.17;10.20;;;;;;;2.97;69.99;97033.44;10462178;28;20349;-54
2021/01/29 06:05:52;;;;;;;34.05;11.45;;;;;;;3.03;69.95;97032.03;10461947;28;20045;-51
2021/01/29 06:11:17;;;;;;;26.38;12.10;;;;;;;3.17;69.83;97015.91;10407644;28;20077;-51
2021/01/29 06:16:58;;;;;;;63.00;14.32;;;;;;;3.26;69.52;97003.81;10458471;28;20491;-52
2021/01/29 06:22:17;;;;;;;61.47;15.77;;;;;;;3.41;69.15;97010.09;10433403;28;20068;-52
2021/01/29 06:27:53;;;;;;;220.43;32.55;;;;;;;3.43;68.84;97006.41;10465346;28;20037;-54
2021/01/29 06:33:30;;;;;;;187.52;32.85;;;;;;;3.38;68.74;96997.44;10442607;28;20139;-53
2021/01/29 06:39:04;;;;;;;131.90;24.08;;;;;;;3.38;69.72;96987.03;10465384;28;20049;-52
2021/01/29 06:44:22;;;;;;;169.27;28.13;;;;;;;3.41;69.17;96994.53;10432137;28;20115;-55
2021/01/29 06:50:09;;;;;;;351.02;55.63;;;;;;;3.42;69.05;96978.00;10464187;28;20131;-52
2021/01/29 06:55:54;;;;;;;211.00;36.17;;;;;;;3.46;69.60;96971.53;10464114;28;20052;-52
2021/01/29 07:01:34;;;;;;;176.25;31.70;;;;;;;3.55;69.24;96977.59;10458756;28;20459;-53
2021/01/29 07:06:53;;;;;;;120.85;26.08;;;;;;;3.68;69.43;96972.78;10430769;28;20045;-53
2021/01/29 07:12:09;;;;;;;47.22;15.52;;;;;;;3.80;68.86;96970.72;10465662;28;20102;-52
2021/01/29 07:17:15;;;;;;;39.33;13.15;;;;;;;3.82;68.78;96963.59;10464683;28;20049;-56
2021/01/29 07:22:43;;;;;;;39.95;15.57;;;;;;;3.84;69.19;96956.44;10463790;28;20104;-52
2021/01/29 07:27:51;;;;;;;44.35;16.10;;;;;;;3.99;68.84;96954.09;10462486;28;20048;-52
2021/01/29 07:33:01;;;;;;;34.00;13.95;;;;;;;4.03;69.33;96950.19;10462959;28;20057;-55
2021/01/29 07:38:25;;;;;;;43.55;16.92;;;;;;;4.14;69.41;96960.31;10461545;28;20144;-55
2021/01/29 07:43:48;;;;;;;44.00;15.80;;;;;;;4.35;68.90;96954.69;10462616;28;20139;-53
2021/01/29 07:49:27;;;;;;;37.63;17.58;;;;;;;4.68;69.03;96933.91;10461266;28;20303;-56
2021/01/29 07:54:56;;;;;;;38.25;15.52;;;;;;;4.78;68.74;96935.41;10428814;28;20103;-56
2021/01/29 08:00:11;;;;;;;35.67;14.98;;;;;;;4.50;68.11;96942.69;10463498;28;20397;-58
2021/01/29 08:05:27;;;;;;;24.30;10.05;;;;;;;4.37;67.96;96942.31;10462673;28;20056;-56
2021/01/29 08:10:32;;;;;;;23.58;9.65;;;;;;;4.39;68.15;96937.78;10461531;28;20144;-55
2021/01/29 08:15:38;;;;;;;13.43;6.32;;;;;;;4.35;67.69;96923.47;10461564;28;20143;-51
2021/01/29 08:21:09;;;;;;;29.70;12.25;;;;;;;4.48;68.28;96918.63;10460849;28;20139;-51
2021/01/29 08:26:40;;;;;;;26.48;11.55;;;;;;;4.58;67.63;96903.66;10460972;28;20057;-52
2021/01/29 08:32:23;;;;;;;29.65;13.27;;;;;;;4.83;67.87;96901.06;10460440;28;20072;-52
2021/01/29 08:37:54;;;;;;;35.00;15.77;;;;;;;5.24;67.50;96901.03;10440226;28;20045;-51
2021/01/29 08:43:33;;;;;;;33.63;16.27;;;;;;;5.55;66.86;96882.91;10460187;28;20135;-55
2021/01/29 08:48:55;;;;;;;25.75;13.40;;;;;;;5.50;66.24;96878.16;10459456;28;20060;-51
2021/01/29 08:54:29;;;;;;;27.95;13.55;;;;;;;5.48;66.11;96884.53;10458432;28;20505;-52
2021/01/29 08:59:34;;;;;;;30.80;13.32;;;;;;;5.30;66.42;96882.16;10458586;28;20049;-52
2021/01/29 09:04:43;;;;;;;25.65;12.15;;;;;;;5.13;65.38;96906.59;10458745;28;20049;-52
2021/01/29 09:09:47;;;;;;;21.30;9.40;;;;;;;4.75;65.15;96914.91;10458841;28;20056;-51
2021/01/29 09:14:54;;;;;;;;;;;;;;;4.51;65.33;96876.69;10459098;28;20056;-52
2021/01/29 09:20:01;;;;;;;29.20;13.02;;;;;;;4.44;65.59;96854.09;10459158;28;20043;-55
2021/01/29 09:25:12;;;;;;;28.70;13.15;;;;;;;4.39;66.25;96847.56;10459563;28;20132;-52
2021/01/29 09:30:21;;;;;;;26.05;11.57;;;;;;;4.46;65.98;96857.31;10458505;28;20060;-51
2021/01/29 09:35:39;;;;;;;14.93;7.20;;;;;;;4.78;66.30;96838.31;10458412;28;20052;-51
2021/01/29 09:40:51;;;;;;;19.27;10.00;;;;;;;4.92;65.87;96821.19;10458116;28;20099;-52
2021/01/29 09:45:55;;;;;;;23.23;9.77;;;;;;;5.00;65.41;96829.81;10458481;28;20481;-52
2021/01/29 09:51:05;;;;;;;21.27;9.80;;;;;;;4.96;65.07;96823.31;10460280;28;20386;-54
2021/01/29 09:56:16;;;;;;;19.05;8.45;;;;;;;4.79;63.94;96808.69;10460231;28;20053;-51
2021/01/29 10:01:20;;;;;;;22.70;9.95;;;;;;;4.61;65.13;96808.88;10464696;28;20493;-51
2021/01/29 10:06:27;;;;;;;17.80;7.78;;;;;;;4.64;64.33;96808.53;10465705;28;20114;-55
2021/01/29 10:11:36;;;;;;;14.05;7.35;;;;;;;4.55;64.21;96789.50;10467055;28;20389;-53
2021/01/29 10:16:43;;;;;;;16.02;6.88;;;;;;;4.84;64.41;96788.19;10465890;28;20060;-52
2021/01/29 10:22:12;;;;;;;12.45;5.78;;;;;;;5.15;63.30;96782.25;10465019;28;20481;-51
2021/01/29 10:27:22;;;;;;;9.90;4.85;;;;;;;5.06;61.14;96774.47;10465156;28;20037;-49
2021/01/29 10:32:29;;;;;;;11.30;5.28;;;;;;;5.06;61.91;96768.44;10464789;28;20044;-53
2021/01/29 10:37:37;;;;;;;11.93;5.65;;;;;;;5.29;62.52;96761.50;10465548;28;20073;-51
2021/01/29 10:42:52;;;;;;;10.85;5.20;;;;;;;5.54;61.99;96766.59;10464814;28;20059;-51
2021/01/29 10:48:02;;;;;;;11.15;5.60;;;;;;;5.60;61.02;96757.28;10464520;28;20045;-55
2021/01/29 10:53:10;;;;;;;12.15;4.13;;;;;;;5.82;61.14;96756.53;10464709;28;20041;-51
2021/01/29 10:58:32;;;;;;;9.57;4.43;;;;;;;5.86;58.96;96757.00;10464545;28;20055;-51
2021/01/29 11:03:53;;;;;;;6.68;2.75;;;;;;;5.70;58.00;96757.91;10464497;28;20072;-54
2021/01/29 11:08:58;;;;;;;7.70;3.05;;;;;;;5.51;57.57;96759.97;10463517;28;20106;-51
2021/01/29 11:14:16;;;;;;;6.63;3.42;;;;;;;5.35;55.44;96752.19;10463935;28;20520;-51
2021/01/29 11:19:23;;;;;;;6.47;2.50;;;;;;;4.96;54.60;96739.19;10464000;28;20037;-52
2021/01/29 11:24:36;;;;;;;8.77;4.13;;;;;;;4.94;55.93;96741.16;10463565;28;20147;-51
2021/01/29 11:29:44;;;;;;;7.75;3.75;;;;;;;4.99;56.29;96724.06;10462085;28;20107;-51
2021/01/29 11:34:46;;;;;;;8.88;5.00;;;;;;;4.93;56.27;96722.13;10462928;28;20102;-51
2021/01/29 11:39:57;;;;;;;8.82;3.70;;;;;;;4.87;56.27;96714.97;10462822;28;20060;-51
2021/01/29 11:45:06;;;;;;;7.43;3.25;;;;;;;4.87;56.33;96725.41;10463141;28;20132;-51
2021/01/29 11:50:13;;;;;;;10.20;3.75;;;;;;;4.81;56.54;96715.66;10465232;28;20041;-53
2021/01/29 11:55:19;;;;;;;7.13;3.53;;;;;;;4.57;56.16;96717.31;10462334;28;20124;-51
2021/01/29 12:00:28;;;;;;;6.40;3.15;;;;;;;4.47;56.45;96714.09;10461904;28;20061;-51
2021/01/29 12:05:35;;;;;;;6.03;2.63;;;;;;;4.11;54.94;96706.66;10461486;28;20174;-53
2021/01/29 12:10:48;;;;;;;6.93;3.00;;;;;;;3.76;55.12;96720.81;10461064;28;20150;-53
2021/01/29 12:15:57;;;;;;;8.05;3.53;;;;;;;3.64;55.98;96727.28;10461323;28;20049;-50
2021/01/29 12:21:08;;;;;;;7.15;2.85;;;;;;;3.54;55.79;96721.41;10460781;28;20041;-53
2021/01/29 12:26:22;;;;;;;6.70;2.97;;;;;;;3.41;56.35;96688.09;10460801;28;20145;-50
2021/01/29 12:31:42;;;;;;;8.52;3.60;;;;;;;3.18;57.42;96722.44;10460567;28;20493;-51
2021/01/29 12:36:54;;;;;;;9.00;4.05;;;;;;;3.04;58.20;96684.13;10460862;28;20098;-51
2021/01/29 12:42:05;;;;;;;8.52;3.22;;;;;;;3.05;58.45;96710.88;10459805;28;20147;-52
2021/01/29 12:47:27;;;;;;;5.13;1.92;;;;;;;2.93;58.15;96707.78;10459740;28;20044;-51
2021/01/29 12:52:33;;;;;;;5.35;2.38;;;;;;;2.79;58.46;96700.56;10460251;28;20049;-53
2021/01/29 12:57:35;;;;;;;6.68;2.85;;;;;;;2.73;58.45;96666.47;10460561;28;20156;-51
2021/01/29 13:03:08;;;;;;;4.80;2.13;;;;;;;2.67;58.76;96651.53;10458859;28;20060;-51
2021/01/29 13:08:28;;;;;;;6.53;2.90;;;;;;;2.65;59.35;96656.09;10459458;28;20048;-51
2021/01/29 13:13:38;;;;;;;4.90;2.17;;;;;;;2.70;59.26;96669.38;10458939;28;20437;-52
2021/01/29 13:18:51;;;;;;;8.15;3.92;;;;;;;2.69;59.16;96623.69;10459245;28;20055;-50
2021/01/29 13:23:56;;;;;;;9.60;4.10;;;;;;;2.78;58.92;96631.50;10459042;28;20051;-51
2021/01/29 13:29:01;;;;;;;7.60;3.60;;;;;;;2.87;58.65;96640.94;10458861;28;20036;-53
2021/01/29 13:34:15;;;;;;;7.57;3.13;;;;;;;2.85;58.53;96633.28;10458114;28;20060;-50
2021/01/29 13:39:22;;;;;;;6.00;2.35;;;;;;;2.83;58.25;96624.03;10458793;28;20041;-51
2021/01/29 13:44:42;;;;;;;9.77;3.35;;;;;;;2.74;58.60;96623.19;10458592;28;20447;-50
2021/01/29 13:49:44;;;;;;;8.00;2.78;;;;;;;2.86;58.69;96623.72;10458329;28;20041;-50
2021/01/29 13:54:46;;;;;;;8.40;3.90;;;;;;;2.91;58.30;96617.09;10458002;28;20063;-53
2021/01/29 13:59:53;;;;;;;7.00;2.90;;;;;;;2.94;58.35;96615.97;10459175;28;20053;-53
2021/01/29 14:05:03;;;;;;;10.52;4.30;;;;;;;2.91;58.35;96605.91;10458621;28;20045;-59
2021/01/29 14:10:09;;;;;;;10.00;4.80;;;;;;;2.93;58.25;96597.00;10459351;28;20066;-56
2021/01/29 14:15:16;;;;;;;8.20;3.85;;;;;;;2.91;58.51;96603.31;10458610;28;20143;-50
2021/01/29 14:20:26;;;;;;;9.73;4.32;;;;;;;3.02;58.41;96582.28;10457875;28;20053;-50
2021/01/29 14:25:40;;;;;;;7.65;3.47;;;;;;;3.12;58.40;96589.91;10468259;28;20514;-55
2021/01/29 14:30:55;;;;;;;9.75;3.92;;;;;;;2.93;58.94;96585.81;10482058;28;20468;-50
2021/01/29 14:36:08;;;;;;;6.80;3.63;;;;;;;2.75;59.52;96585.94;10497858;28;20504;-50
2021/01/29 14:41:17;;;;;;;5.72;2.63;;;;;;;2.65;60.05;96575.69;10497121;28;20071;-52
2021/01/29 14:46:33;;;;;;;7.03;3.22;;;;;;;2.68;59.87;96580.56;10490904;28;20051;-50
2021/01/29 14:51:45;;;;;;;7.55;3.85;;;;;;;2.84;59.98;96563.44;10504375;28;20049;-49
2021/01/29 14:56:54;;;;;;;8.85;3.47;;;;;;;2.93;59.43;96565.06;10502155;28;20494;-51
2021/01/29 15:02:02;;;;;;;7.18;3.15;;;;;;;2.98;59.17;96568.78;10503721;28;20389;-53
2021/01/29 15:07:10;;;;;;;8.15;4.10;;;;;;;3.09;59.27;96572.88;10503696;28;20114;-50
2021/01/29 15:12:13;;;;;;;9.07;4.10;;;;;;;3.14;58.82;96561.97;10494557;28;20045;-50
2021/01/29 15:17:27;;;;;;;7.95;4.40;;;;;;;3.18;58.50;96551.13;10495957;28;20379;-52
2021/01/29 15:22:30;;;;;;;;;;;;;;;3.27;58.48;96553.75;10503806;28;20052;-51
2021/01/29 15:27:35;;;;;;;9.32;4.78;;;;;;;3.35;57.99;96551.94;10499613;28;20329;-50
2021/01/29 15:32:40;;;;;;;9.57;5.05;;;;;;;3.38;58.00;96551.59;10502569;28;20044;-51
2021/01/29 15:38:12;;;;;;;10.02;5.07;;;;;;;3.40;58.03;96557.47;10502824;28;20044;-51
2021/01/29 15:43:48;;;;;;;10.98;5.43;;;;;;;3.46;58.02;96556.81;10459575;28;20055;-57
2021/01/29 15:49:04;;;;;;;11.02;6.07;;;;;;;3.51;58.06;96551.16;10485404;28;20045;-52
2021/01/29 15:54:26;;;;;;;9.60;4.90;;;;;;;3.51;57.70;96558.09;10502076;28;20048;-50
2021/01/29 15:59:44;;;;;;;8.38;4.30;;;;;;;3.59;57.59;96555.50;10505130;28;20052;-50
2021/01/29 16:04:49;;;;;;;8.30;3.78;;;;;;;3.56;57.98;96558.44;10478385;28;20158;-50
2021/01/29 16:10:06;;;;;;;6.80;3.65;;;;;;;3.43;58.00;96561.53;10459988;28;20041;-56
2021/01/29 16:15:23;;;;;;;10.75;5.68;;;;;;;3.20;58.53;96551.78;10491264;28;20075;-53
2021/01/29 16:20:28;;;;;;;8.85;4.70;;;;;;;3.22;59.08;96552.44;10474329;28;20075;-54
2021/01/29 16:25:31;;;;;;;8.55;4.00;;;;;;;3.29;58.47;96554.38;10467348;28;20045;-54
2021/01/29 16:30:35;;;;;;;8.05;4.20;;;;;;;3.38;58.15;96564.59;10500576;28;20113;-54
2021/01/29 16:35:41;;;;;;;7.60;3.90;;;;;;;3.40;58.00;96556.66;10500400;28;20134;-52
2021/01/29 16:40:44;;;;;;;11.07;4.53;;;;;;;3.33;57.92;96560.88;10499270;28;20056;-54
2021/01/29 16:45:48;;;;;;;6.33;3.03;;;;;;;3.34;57.42;96554.72;10499082;28;20050;-55
2021/01/29 16:50:53;;;;;;;7.63;3.83;;;;;;;3.30;57.64;96545.63;10500025;28;20044;-52
2021/01/29 16:56:07;;;;;;;5.47;2.60;;;;;;;3.28;57.17;96558.75;10500201;28;20059;-52
2021/01/29 17:01:12;;;;;;;5.43;2.78;;;;;;;3.27;57.54;96543.34;10499877;28;20152;-51
2021/01/29 17:06:23;;;;;;;7.13;2.40;;;;;;;3.15;57.28;96554.06;10499314;28;20052;-54
2021/01/29 17:11:31;;;;;;;7.47;3.60;;;;;;;3.14;57.96;96555.03;10496760;28;20048;-53
2021/01/29 17:16:33;;;;;;;7.03;3.67;;;;;;;3.02;58.21;96564.09;10498735;28;20083;-54
2021/01/29 17:21:39;;;;;;;5.10;2.30;;;;;;;2.92;58.67;96576.41;10498044;28;20041;-53
2021/01/29 17:26:44;;;;;;;3.70;1.55;;;;;;;2.82;58.67;96566.16;10497567;28;20537;-54
2021/01/29 17:31:46;;;;;;;6.00;2.00;;;;;;;2.69;58.97;96566.63;10499338;28;20048;-55
2021/01/29 17:36:55;;;;;;;4.25;1.80;;;;;;;2.62;58.16;96570.81;10498579;28;20045;-53
2021/01/29 17:42:24;;;;;;;4.78;2.03;;;;;;;2.66;58.28;96581.69;10497901;28;20048;-53
2021/01/29 17:47:28;;;;;;;3.47;1.55;;;;;;;2.34;59.96;96564.22;10498211;28;20048;-58
2021/01/29 17:52:35;;;;;;;3.78;1.75;;;;;;;2.07;61.19;96581.63;10499521;28;20044;-55
2021/01/29 17:57:37;;;;;;;5.80;2.10;;;;;;;2.03;61.67;96581.13;10497304;28;20151;-53
2021/01/29 18:02:41;;;;;;;4.80;1.75;;;;;;;1.99;62.55;96586.75;10497439;28;20508;-57
2021/01/29 18:08:00;;;;;;;5.43;2.08;;;;;;;2.00;62.29;96578.81;10498065;28;20049;-51
2021/01/29 18:13:06;;;;;;;3.80;1.58;;;;;;;2.00;63.02;96580.56;10497160;28;20063;-53
2021/01/29 18:18:09;;;;;;;5.38;2.00;;;;;;;1.84;63.21;96574.34;10497909;28;20047;-53
2021/01/29 18:23:16;;;;;;;5.95;2.42;;;;;;;1.82;63.55;96572.88;10504926;28;20852;-52
2021/01/29 18:28:21;;;;;;;5.45;2.58;;;;;;;1.79;63.95;96566.22;10504826;28;20044;-53
2021/01/29 18:33:27;;;;;;;3.28;1.30;;;;;;;1.89;63.79;96562.72;10504435;28;20052;-51
2021/01/29 18:38:29;;;;;;;5.75;2.03;;;;;;;1.83;63.43;96570.13;10504400;28;20393;-54
2021/01/29 18:43:30;;;;;;;5.90;1.60;;;;;;;1.84;63.54;96561.38;10504304;28;20493;-52
2021/01/29 18:48:33;;;;;;;3.72;1.40;;;;;;;1.86;62.20;96568.22;10503280;28;20051;-52
2021/01/29 18:53:35;;;;;;;2.53;1.02;;;;;;;1.78;61.67;96567.19;10504461;28;20133;-53
2021/01/29 18:58:36;;;;;;;3.97;1.45;;;;;;;1.78;60.66;96572.34;10504108;28;20477;-54
2021/01/29 19:03:39;;;;;;;3.65;1.17;;;;;;;1.80;59.96;96574.81;10504687;28;20052;-54
2021/01/29 19:08:41;;;;;;;1.50;0.70;;;;;;;1.78;59.11;96572.34;10503040;28;20048;-51
2021/01/29 19:13:43;;;;;;;3.88;1.23;;;;;;;1.78;58.70;96566.38;10503569;28;20499;-51
2021/01/29 19:18:46;;;;;;;2.50;0.88;;;;;;;1.81;58.13;96571.25;10503842;28;20541;-52
2021/01/29 19:23:48;;;;;;;4.17;1.10;;;;;;;1.81;57.85;96569.47;10503284;28;20058;-54
2021/01/29 19:28:53;;;;;;;4.38;2.00;;;;;;;1.84;57.68;96571.75;10502241;28;20048;-52
2021/01/29 19:33:58;;;;;;;2.70;0.90;;;;;;;1.99;57.43;96579.78;10503753;28;20366;-54
2021/01/29 19:39:01;;;;;;;3.55;1.15;;;;;;;1.98;56.61;96569.59;10502916;28;20458;-53
2021/01/29 19:44:02;;;;;;;3.20;1.10;;;;;;;2.01;56.81;96574.47;10502852;28;20483;-53
2021/01/29 19:49:05;;;;;;;2.30;1.13;;;;;;;1.97;55.56;96566.19;10505041;28;20041;-53
2021/01/29 19:54:07;;;;;;;2.65;1.10;;;;;;;1.96;55.67;96572.31;10506627;28;20488;-54
2021/01/29 19:59:08;;;;;;;3.83;1.95;;;;;;;1.88;55.36;96572.28;10499729;28;20056;-53
2021/01/29 20:04:14;;;;;;;4.13;1.55;;;;;;;1.87;54.64;96565.47;10499968;28;20555;-51
2021/01/29 20:09:17;;;;;;;3.78;1.40;;;;;;;1.99;54.93;96563.41;10500253;28;20040;-51
2021/01/29 20:14:20;;;;;;;4.90;1.70;;;;;;;2.13;54.96;96565.44;10501524;28;20374;-52
2021/01/29 20:19:24;;;;;;;5.75;1.85;;;;;;;2.07;54.67;96561.69;10500391;28;20111;-50
2021/01/29 20:24:26;;;;;;;2.83;0.93;;;;;;;1.66;54.40;96573.56;10500376;28;20377;-52
2021/01/29 20:29:27;;;;;;;4.15;1.63;;;;;;;1.40;56.05;96591.69;10499655;28;20465;-51
2021/01/29 20:34:30;;;;;;;3.55;1.50;;;;;;;1.30;57.16;96594.34;10499793;28;20070;-50
2021/01/29 20:39:33;;;;;;;6.70;2.83;;;;;;;1.10;58.03;96579.94;10499390;28;20052;-51
2021/01/29 20:44:35;;;;;;;5.68;2.30;;;;;;;1.12;57.89;96589.19;10499342;28;20530;-52
2021/01/29 20:49:37;;;;;;;4.57;1.55;;;;;;;1.01;59.05;96578.22;10499698;28;20127;-52
2021/01/29 20:54:40;;;;;;;7.07;2.35;;;;;;;0.83;59.49;96591.97;10500259;28;20564;-52
2021/01/29 20:59:41;;;;;;;5.07;2.22;;;;;;;0.60;60.32;96585.59;10499625;28;20057;-54
2021/01/29 21:04:44;;;;;;;4.88;2.03;;;;;;;0.43;61.29;96585.41;10499443;28;20456;-53
2021/01/29 21:09:46;;;;;;;7.88;3.83;;;;;;;0.40;61.36;96577.94;10498880;28;20063;-52
2021/01/29 21:14:48;;;;;;;6.65;2.70;;;;;;;0.33;61.66;96588.97;10498449;28;20079;-52
2021/01/29 21:19:50;;;;;;;5.22;2.25;;;;;;;0.34;61.95;96581.09;10499931;28;20105;-53
2021/01/29 21:24:52;;;;;;;9.25;4.03;;;;;;;0.38;62.30;96586.78;10498009;28;20143;-52
2021/01/29 21:29:55;;;;;;;8.00;3.80;;;;;;;0.34;62.01;96585.44;10498984;28;20127;-54
2021/01/29 21:34:58;;;;;;;12.52;5.93;;;;;;;0.34;62.75;96570.75;10498759;28;20052;-53
2021/01/29 21:39:59;;;;;;;10.18;4.63;;;;;;;0.43;62.17;96579.41;10497779;28;20117;-52
2021/01/29 21:45:01;;;;;;;12.45;5.25;;;;;;;0.51;62.30;96576.09;10500629;28;20102;-60
2021/01/29 21:50:05;;;;;;;13.07;5.18;;;;;;;0.57;62.51;96578.94;10498236;28;20052;-53
2021/01/29 21:55:08;;;;;;;6.72;3.58;;;;;;;0.58;62.24;96582.31;10501328;28;20044;-53
2021/01/29 22:00:12;;;;;;;12.13;5.25;;;;;;;0.53;62.56;96571.63;10505891;28;20044;-52
2021/01/29 22:05:17;;;;;;;8.02;3.95;;;;;;;0.54;62.32;96570.66;10506465;28;20048;-53
2021/01/29 22:10:21;;;;;;;13.93;5.35;;;;;;;0.48;62.51;96563.47;10505839;28;20048;-53
2021/01/29 22:15:25;;;;;;;10.98;5.43;;;;;;;0.37;63.21;96560.13;10505544;28;20056;-53
2021/01/29 22:20:28;;;;;;;8.23;3.88;;;;;;;0.33;63.19;96548.44;10505024;28;20044;-53
2021/01/29 22:25:30;;;;;;;11.90;5.70;;;;;;;0.33;63.19;96558.78;10506075;28;20056;-53
2021/01/29 22:30:34;;;;;;;10.18;4.32;;;;;;;0.36;63.33;96544.75;10504924;28;20102;-57
2021/01/29 22:35:37;;;;;;;8.40;3.97;;;;;;;0.39;62.88;96542.69;10504569;28;20044;-56
2021/01/29 22:40:40;;;;;;;9.52;4.43;;;;;;;0.48;63.34;96540.22;10504758;28;20048;-53
2021/01/29 22:45:42;;;;;;;9.05;4.38;;;;;;;0.50;62.98;96548.66;10504632;28;20060;-53
2021/01/29 22:50:44;;;;;;;10.68;5.25;;;;;;;0.41;63.06;96545.16;10503914;28;20044;-53
2021/01/29 22:55:46;;;;;;;7.43;3.33;;;;;;;0.36;62.99;96537.81;10503781;28;20062;-52
2021/01/29 23:00:48;;;;;;;9.18;4.70;;;;;;;0.27;62.49;96525.78;10503547;28;20489;-52
2021/01/29 23:05:51;;;;;;;9.02;3.80;;;;;;;0.21;62.26;96528.94;10500127;28;20051;-52
2021/01/29 23:10:52;;;;;;;11.73;5.60;;;;;;;0.20;62.59;96528.13;10491745;28;20540;-53
2021/01/29 23:15:54;;;;;;;12.60;5.35;;;;;;;0.23;61.89;96521.84;10501670;28;20051;-52
2021/01/29 23:20:57;;;;;;;9.68;5.20;;;;;;;0.24;61.46;96520.88;10466410;28;20053;-52
2021/01/29 23:25:58;;;;;;;8.15;3.10;;;;;;;0.27;61.55;96510.25;10461576;28;20049;-53
2021/01/29 23:31:03;;;;;;;8.48;3.97;;;;;;;0.36;61.33;96513.75;10544637;28;20040;-54
2021/01/29 23:36:07;;;;;;;9.95;4.90;;;;;;;0.50;60.98;96513.28;10478900;28;20052;-53
2021/01/29 23:41:10;;;;;;;10.02;4.82;;;;;;;0.53;60.70;96507.00;10462895;28;20135;-53
2021/01/29 23:46:12;;;;;;;11.03;6.33;;;;;;;0.51;60.50;96509.72;10464556;28;20059;-52
2021/01/29 23:51:15;;;;;;;11.50;5.80;;;;;;;0.59;60.44;96509.00;10460427;28;20303;-53
2021/01/29 23:56:18;;;;;;;10.95;5.15;;;;;;;0.64;60.36;96501.59;10460286;28;20458;-52
